sensor_id;sensor_type;location;lat;lon;timestamp;P1;durP1;ratioP1;P2;durP2;ratioP2
10078;SDS011;5078;42.544;22.966;2024-02-15T00:01:44;14.87;;;10.40;;
10078;SDS011;5078;42.544;22.966;2024-02-15T00:04:10;11.87;;;10.30;;
10078;SDS011;5078;42.544;22.966;2024-02-15T00:06:37;13.03;;;10.47;;
10078;SDS011;5078;42.544;22.966;2024-02-15T00:09:05;10.47;;;8.90;;
10078;SDS011;5078;42.544;22.966;2024-02-15T00:11:32;13.17;;;10.10;;
10078;SDS011;5078;42.544;22.966;2024-02-15T00:13:58;12.10;;;10.10;;
10078;SDS011;5078;42.544;22.966;2024-02-15T00:16:25;13.67;;;10.33;;
10078;SDS011;5078;42.544;22.966;2024-02-15T00:18:53;12.50;;;10.37;;
10078;SDS011;5078;42.544;22.966;2024-02-15T00:21:20;13.20;;;11.03;;
10078;SDS011;5078;42.544;22.966;2024-02-15T00:23:47;11.47;;;10.27;;
10078;SDS011;5078;42.544;22.966;2024-02-15T00:26:15;12.23;;;10.80;;
10078;SDS011;5078;42.544;22.966;2024-02-15T00:28:41;12.43;;;10.67;;
10078;SDS011;5078;42.544;22.966;2024-02-15T00:31:08;12.57;;;10.77;;
10078;SDS011;5078;42.544;22.966;2024-02-15T00:33:35;12.73;;;11.43;;
10078;SDS011;5078;42.544;22.966;2024-02-15T00:36:02;15.30;;;11.77;;
10078;SDS011;5078;42.544;22.966;2024-02-15T00:38:31;14.53;;;11.93;;
10078;SDS011;5078;42.544;22.966;2024-02-15T00:40:57;14.23;;;12.43;;
10078;SDS011;5078;42.544;22.966;2024-02-15T00:43:26;15.03;;;12.17;;
10078;SDS011;5078;42.544;22.966;2024-02-15T00:45:53;12.20;;;10.97;;
10078;SDS011;5078;42.544;22.966;2024-02-15T00:48:20;14.30;;;12.07;;
10078;SDS011;5078;42.544;22.966;2024-02-15T00:50:46;14.73;;;11.93;;
10078;SDS011;5078;42.544;22.966;2024-02-15T00:53:14;13.50;;;11.90;;
10078;SDS011;5078;42.544;22.966;2024-02-15T00:55:41;15.83;;;12.57;;
10078;SDS011;5078;42.544;22.966;2024-02-15T00:58:08;13.10;;;11.43;;
10078;SDS011;5078;42.544;22.966;2024-02-15T01:00:36;13.87;;;12.40;;
10078;SDS011;5078;42.544;22.966;2024-02-15T01:03:03;15.80;;;11.77;;
10078;SDS011;5078;42.544;22.966;2024-02-15T01:05:30;13.27;;;10.63;;
10078;SDS011;5078;42.544;22.966;2024-02-15T01:07:57;14.30;;;11.00;;
10078;SDS011;5078;42.544;22.966;2024-02-15T01:10:23;12.27;;;10.97;;
10078;SDS011;5078;42.544;22.966;2024-02-15T01:12:51;13.77;;;11.53;;
10078;SDS011;5078;42.544;22.966;2024-02-15T01:15:18;13.13;;;11.60;;
10078;SDS011;5078;42.544;22.966;2024-02-15T01:17:47;14.87;;;11.67;;
10078;SDS011;5078;42.544;22.966;2024-02-15T01:20:14;14.50;;;11.07;;
10078;SDS011;5078;42.544;22.966;2024-02-15T01:22:41;15.53;;;11.77;;
10078;SDS011;5078;42.544;22.966;2024-02-15T01:25:09;14.30;;;12.30;;
10078;SDS011;5078;42.544;22.966;2024-02-15T01:27:36;12.87;;;11.47;;
10078;SDS011;5078;42.544;22.966;2024-02-15T01:30:03;13.27;;;11.87;;
10078;SDS011;5078;42.544;22.966;2024-02-15T01:32:30;13.17;;;11.10;;
10078;SDS011;5078;42.544;22.966;2024-02-15T01:34:58;12.53;;;11.23;;
10078;SDS011;5078;42.544;22.966;2024-02-15T01:37:25;14.37;;;11.43;;
10078;SDS011;5078;42.544;22.966;2024-02-15T01:39:52;14.43;;;11.13;;
10078;SDS011;5078;42.544;22.966;2024-02-15T01:42:18;13.97;;;11.63;;
10078;SDS011;5078;42.544;22.966;2024-02-15T01:44:45;14.67;;;11.67;;
10078;SDS011;5078;42.544;22.966;2024-02-15T01:47:14;15.13;;;12.00;;
10078;SDS011;5078;42.544;22.966;2024-02-15T01:49:44;14.67;;;12.83;;
10078;SDS011;5078;42.544;22.966;2024-02-15T01:52:12;13.73;;;12.20;;
10078;SDS011;5078;42.544;22.966;2024-02-15T01:54:39;14.57;;;11.97;;
10078;SDS011;5078;42.544;22.966;2024-02-15T01:57:06;14.30;;;12.50;;
10078;SDS011;5078;42.544;22.966;2024-02-15T01:59:33;15.57;;;12.43;;
10078;SDS011;5078;42.544;22.966;2024-02-15T02:02:00;16.13;;;12.37;;
10078;SDS011;5078;42.544;22.966;2024-02-15T02:04:28;15.07;;;11.83;;
10078;SDS011;5078;42.544;22.966;2024-02-15T02:06:56;14.53;;;12.57;;
10078;SDS011;5078;42.544;22.966;2024-02-15T02:09:25;14.10;;;12.30;;
10078;SDS011;5078;42.544;22.966;2024-02-15T02:11:52;16.00;;;12.23;;
10078;SDS011;5078;42.544;22.966;2024-02-15T02:14:19;13.80;;;12.17;;
10078;SDS011;5078;42.544;22.966;2024-02-15T02:16:47;13.70;;;12.23;;
10078;SDS011;5078;42.544;22.966;2024-02-15T02:19:14;14.73;;;12.43;;
10078;SDS011;5078;42.544;22.966;2024-02-15T02:21:43;15.00;;;12.17;;
10078;SDS011;5078;42.544;22.966;2024-02-15T02:24:11;15.50;;;12.97;;
10078;SDS011;5078;42.544;22.966;2024-02-15T02:26:41;15.77;;;12.57;;
10078;SDS011;5078;42.544;22.966;2024-02-15T02:29:08;14.90;;;12.77;;
10078;SDS011;5078;42.544;22.966;2024-02-15T02:31:35;14.20;;;12.63;;
10078;SDS011;5078;42.544;22.966;2024-02-15T02:34:02;18.20;;;12.90;;
10078;SDS011;5078;42.544;22.966;2024-02-15T02:36:31;15.23;;;13.33;;
10078;SDS011;5078;42.544;22.966;2024-02-15T02:38:58;15.37;;;13.03;;
10078;SDS011;5078;42.544;22.966;2024-02-15T02:41:25;15.00;;;12.70;;
10078;SDS011;5078;42.544;22.966;2024-02-15T02:43:54;17.03;;;13.83;;
10078;SDS011;5078;42.544;22.966;2024-02-15T02:46:21;16.53;;;13.17;;
10078;SDS011;5078;42.544;22.966;2024-02-15T02:48:48;16.37;;;13.87;;
10078;SDS011;5078;42.544;22.966;2024-02-15T02:51:15;17.67;;;14.00;;
10078;SDS011;5078;42.544;22.966;2024-02-15T02:53:42;15.97;;;13.03;;
10078;SDS011;5078;42.544;22.966;2024-02-15T02:56:09;17.33;;;14.00;;
10078;SDS011;5078;42.544;22.966;2024-02-15T02:58:35;16.23;;;14.20;;
10078;SDS011;5078;42.544;22.966;2024-02-15T03:01:03;16.70;;;13.03;;
10078;SDS011;5078;42.544;22.966;2024-02-15T03:03:31;17.20;;;13.73;;
10078;SDS011;5078;42.544;22.966;2024-02-15T03:05:58;17.83;;;13.47;;
10078;SDS011;5078;42.544;22.966;2024-02-15T03:08:24;17.00;;;13.77;;
10078;SDS011;5078;42.544;22.966;2024-02-15T03:10:51;15.70;;;12.90;;
10078;SDS011;5078;42.544;22.966;2024-02-15T03:13:17;16.73;;;13.37;;
10078;SDS011;5078;42.544;22.966;2024-02-15T03:15:45;16.73;;;12.87;;
10078;SDS011;5078;42.544;22.966;2024-02-15T03:18:15;17.40;;;13.00;;
10078;SDS011;5078;42.544;22.966;2024-02-15T03:20:42;15.73;;;12.60;;
10078;SDS011;5078;42.544;22.966;2024-02-15T03:23:09;18.63;;;13.73;;
10078;SDS011;5078;42.544;22.966;2024-02-15T03:25:36;19.20;;;15.43;;
10078;SDS011;5078;42.544;22.966;2024-02-15T03:28:03;19.53;;;15.57;;
10078;SDS011;5078;42.544;22.966;2024-02-15T03:30:30;22.83;;;16.27;;
10078;SDS011;5078;42.544;22.966;2024-02-15T03:32:58;37.80;;;25.37;;
10078;SDS011;5078;42.544;22.966;2024-02-15T03:35:27;27.63;;;20.10;;
10078;SDS011;5078;42.544;22.966;2024-02-15T03:37:56;22.93;;;16.70;;
10078;SDS011;5078;42.544;22.966;2024-02-15T03:40:23;18.00;;;14.20;;
10078;SDS011;5078;42.544;22.966;2024-02-15T03:42:51;16.60;;;13.53;;
10078;SDS011;5078;42.544;22.966;2024-02-15T03:45:18;16.07;;;13.17;;
10078;SDS011;5078;42.544;22.966;2024-02-15T03:47:45;17.93;;;13.73;;
10078;SDS011;5078;42.544;22.966;2024-02-15T03:50:12;17.63;;;13.83;;
10078;SDS011;5078;42.544;22.966;2024-02-15T03:52:41;18.07;;;13.77;;
10078;SDS011;5078;42.544;22.966;2024-02-15T03:55:08;17.13;;;14.03;;
10078;SDS011;5078;42.544;22.966;2024-02-15T03:57:35;22.07;;;14.70;;
10078;SDS011;5078;42.544;22.966;2024-02-15T04:00:05;19.17;;;14.50;;
10078;SDS011;5078;42.544;22.966;2024-02-15T04:02:36;21.43;;;15.40;;
10078;SDS011;5078;42.544;22.966;2024-02-15T04:05:05;20.73;;;14.27;;
10078;SDS011;5078;42.544;22.966;2024-02-15T04:07:34;17.57;;;13.63;;
10078;SDS011;5078;42.544;22.966;2024-02-15T04:10:04;19.90;;;13.93;;
10078;SDS011;5078;42.544;22.966;2024-02-15T04:12:32;17.23;;;13.30;;
10078;SDS011;5078;42.544;22.966;2024-02-15T04:14:59;16.20;;;12.77;;
10078;SDS011;5078;42.544;22.966;2024-02-15T04:17:30;16.67;;;12.93;;
10078;SDS011;5078;42.544;22.966;2024-02-15T04:19:57;15.10;;;12.17;;
10078;SDS011;5078;42.544;22.966;2024-02-15T04:22:25;15.40;;;11.97;;
10078;SDS011;5078;42.544;22.966;2024-02-15T04:24:51;15.10;;;10.23;;
10078;SDS011;5078;42.544;22.966;2024-02-15T04:27:19;15.63;;;13.07;;
10078;SDS011;5078;42.544;22.966;2024-02-15T04:29:46;17.80;;;12.37;;
10078;SDS011;5078;42.544;22.966;2024-02-15T04:32:13;16.57;;;12.43;;
10078;SDS011;5078;42.544;22.966;2024-02-15T04:34:40;17.43;;;12.13;;
10078;SDS011;5078;42.544;22.966;2024-02-15T04:37:07;17.77;;;13.80;;
10078;SDS011;5078;42.544;22.966;2024-02-15T04:39:34;17.37;;;12.43;;
10078;SDS011;5078;42.544;22.966;2024-02-15T04:42:01;16.53;;;12.40;;
10078;SDS011;5078;42.544;22.966;2024-02-15T04:44:31;14.13;;;12.37;;
10078;SDS011;5078;42.544;22.966;2024-02-15T04:47:00;16.07;;;11.77;;
10078;SDS011;5078;42.544;22.966;2024-02-15T04:49:29;14.67;;;11.03;;
10078;SDS011;5078;42.544;22.966;2024-02-15T04:51:55;14.80;;;11.60;;
10078;SDS011;5078;42.544;22.966;2024-02-15T04:54:22;16.60;;;12.23;;
10078;SDS011;5078;42.544;22.966;2024-02-15T04:56:49;14.17;;;10.73;;
10078;SDS011;5078;42.544;22.966;2024-02-15T04:59:19;15.40;;;12.60;;
10078;SDS011;5078;42.544;22.966;2024-02-15T05:01:50;16.87;;;12.03;;
10078;SDS011;5078;42.544;22.966;2024-02-15T05:04:17;15.80;;;12.10;;
10078;SDS011;5078;42.544;22.966;2024-02-15T05:06:44;17.73;;;12.80;;
10078;SDS011;5078;42.544;22.966;2024-02-15T05:09:11;17.87;;;14.13;;
10078;SDS011;5078;42.544;22.966;2024-02-15T05:11:38;17.67;;;13.27;;
10078;SDS011;5078;42.544;22.966;2024-02-15T05:14:06;17.47;;;12.93;;
10078;SDS011;5078;42.544;22.966;2024-02-15T05:16:34;19.43;;;13.43;;
10078;SDS011;5078;42.544;22.966;2024-02-15T05:19:09;16.37;;;11.63;;
10078;SDS011;5078;42.544;22.966;2024-02-15T05:21:37;16.77;;;12.30;;
10078;SDS011;5078;42.544;22.966;2024-02-15T05:24:04;17.90;;;11.97;;
10078;SDS011;5078;42.544;22.966;2024-02-15T05:26:31;17.97;;;12.93;;
10078;SDS011;5078;42.544;22.966;2024-02-15T05:28:58;16.73;;;12.63;;
10078;SDS011;5078;42.544;22.966;2024-02-15T05:31:25;19.40;;;13.33;;
10078;SDS011;5078;42.544;22.966;2024-02-15T05:33:52;17.47;;;13.20;;
10078;SDS011;5078;42.544;22.966;2024-02-15T05:36:21;16.43;;;12.07;;
10078;SDS011;5078;42.544;22.966;2024-02-15T05:38:51;18.40;;;12.90;;
10078;SDS011;5078;42.544;22.966;2024-02-15T05:41:19;17.80;;;12.97;;
10078;SDS011;5078;42.544;22.966;2024-02-15T05:43:46;18.67;;;13.70;;
10078;SDS011;5078;42.544;22.966;2024-02-15T05:46:14;18.70;;;14.10;;
10078;SDS011;5078;42.544;22.966;2024-02-15T05:48:41;19.00;;;15.10;;
10078;SDS011;5078;42.544;22.966;2024-02-15T05:51:07;33.57;;;21.57;;
10078;SDS011;5078;42.544;22.966;2024-02-15T05:53:37;24.43;;;17.17;;
10078;SDS011;5078;42.544;22.966;2024-02-15T05:56:04;25.13;;;17.37;;
10078;SDS011;5078;42.544;22.966;2024-02-15T05:58:32;29.90;;;20.03;;
10078;SDS011;5078;42.544;22.966;2024-02-15T06:00:59;27.27;;;19.03;;
10078;SDS011;5078;42.544;22.966;2024-02-15T06:03:27;27.93;;;18.70;;
10078;SDS011;5078;42.544;22.966;2024-02-15T06:05:54;27.60;;;18.93;;
10078;SDS011;5078;42.544;22.966;2024-02-15T06:08:23;41.53;;;24.63;;
10078;SDS011;5078;42.544;22.966;2024-02-15T06:10:51;49.73;;;30.87;;
10078;SDS011;5078;42.544;22.966;2024-02-15T06:13:18;163.20;;;112.37;;
10078;SDS011;5078;42.544;22.966;2024-02-15T06:15:45;166.03;;;105.57;;
10078;SDS011;5078;42.544;22.966;2024-02-15T06:18:17;110.47;;;71.37;;
10078;SDS011;5078;42.544;22.966;2024-02-15T06:20:46;50.40;;;34.93;;
10078;SDS011;5078;42.544;22.966;2024-02-15T06:23:15;134.13;;;86.20;;
10078;SDS011;5078;42.544;22.966;2024-02-15T06:25:41;54.13;;;35.43;;
10078;SDS011;5078;42.544;22.966;2024-02-15T06:28:10;23.07;;;17.43;;
10078;SDS011;5078;42.544;22.966;2024-02-15T06:30:44;18.63;;;13.40;;
10078;SDS011;5078;42.544;22.966;2024-02-15T06:33:29;18.17;;;13.10;;
10078;SDS011;5078;42.544;22.966;2024-02-15T06:36:13;15.27;;;11.20;;
10078;SDS011;5078;42.544;22.966;2024-02-15T06:38:57;29.00;;;20.37;;
10078;SDS011;5078;42.544;22.966;2024-02-15T06:41:41;15.63;;;12.33;;
10078;SDS011;5078;42.544;22.966;2024-02-15T06:44:08;13.70;;;9.63;;
10078;SDS011;5078;42.544;22.966;2024-02-15T06:46:37;13.73;;;10.50;;
10078;SDS011;5078;42.544;22.966;2024-02-15T06:49:04;15.83;;;11.60;;
10078;SDS011;5078;42.544;22.966;2024-02-15T06:51:30;14.93;;;11.90;;
10078;SDS011;5078;42.544;22.966;2024-02-15T06:53:57;17.80;;;12.60;;
10078;SDS011;5078;42.544;22.966;2024-02-15T06:56:24;18.43;;;14.10;;
10078;SDS011;5078;42.544;22.966;2024-02-15T06:58:50;14.13;;;10.90;;
10078;SDS011;5078;42.544;22.966;2024-02-15T07:01:20;16.63;;;12.10;;
10078;SDS011;5078;42.544;22.966;2024-02-15T07:03:47;21.77;;;15.57;;
10078;SDS011;5078;42.544;22.966;2024-02-15T07:06:13;18.70;;;13.67;;
10078;SDS011;5078;42.544;22.966;2024-02-15T07:08:40;17.83;;;13.57;;
10078;SDS011;5078;42.544;22.966;2024-02-15T07:11:07;18.17;;;12.77;;
10078;SDS011;5078;42.544;22.966;2024-02-15T07:13:34;17.83;;;13.40;;
10078;SDS011;5078;42.544;22.966;2024-02-15T07:16:02;16.97;;;13.13;;
10078;SDS011;5078;42.544;22.966;2024-02-15T07:18:30;19.67;;;13.67;;
10078;SDS011;5078;42.544;22.966;2024-02-15T07:20:57;15.27;;;12.63;;
10078;SDS011;5078;42.544;22.966;2024-02-15T07:23:26;13.47;;;11.97;;
10078;SDS011;5078;42.544;22.966;2024-02-15T07:25:52;17.10;;;12.60;;
10078;SDS011;5078;42.544;22.966;2024-02-15T07:28:20;19.63;;;12.88;;
10078;SDS011;5078;42.544;22.966;2024-02-15T07:30:46;19.30;;;14.07;;
10078;SDS011;5078;42.544;22.966;2024-02-15T07:33:15;17.90;;;13.30;;
10078;SDS011;5078;42.544;22.966;2024-02-15T07:35:44;15.90;;;12.25;;
10078;SDS011;5078;42.544;22.966;2024-02-15T07:38:11;15.52;;;11.75;;
10078;SDS011;5078;42.544;22.966;2024-02-15T07:40:38;13.85;;;10.48;;
10078;SDS011;5078;42.544;22.966;2024-02-15T07:43:05;13.63;;;10.25;;
10078;SDS011;5078;42.544;22.966;2024-02-15T07:45:32;14.40;;;10.43;;
10078;SDS011;5078;42.544;22.966;2024-02-15T07:48:02;13.77;;;10.25;;
10078;SDS011;5078;42.544;22.966;2024-02-15T07:50:30;15.02;;;10.45;;
10078;SDS011;5078;42.544;22.966;2024-02-15T07:52:58;10.90;;;9.73;;
10078;SDS011;5078;42.544;22.966;2024-02-15T07:55:25;10.63;;;9.32;;
10078;SDS011;5078;42.544;22.966;2024-02-15T07:57:53;11.10;;;9.35;;
10078;SDS011;5078;42.544;22.966;2024-02-15T08:00:21;29.65;;;24.17;;
10078;SDS011;5078;42.544;22.966;2024-02-15T08:02:47;26.17;;;20.92;;
10078;SDS011;5078;42.544;22.966;2024-02-15T08:05:14;16.95;;;13.55;;
10078;SDS011;5078;42.544;22.966;2024-02-15T08:07:41;78.82;;;48.40;;
10078;SDS011;5078;42.544;22.966;2024-02-15T08:10:11;12.35;;;9.70;;
10078;SDS011;5078;42.544;22.966;2024-02-15T08:12:39;11.93;;;9.15;;
10078;SDS011;5078;42.544;22.966;2024-02-15T08:15:07;12.63;;;9.85;;
10078;SDS011;5078;42.544;22.966;2024-02-15T08:17:37;15.00;;;9.75;;
10078;SDS011;5078;42.544;22.966;2024-02-15T08:20:05;10.75;;;9.52;;
10078;SDS011;5078;42.544;22.966;2024-02-15T08:22:33;15.65;;;9.10;;
10078;SDS011;5078;42.544;22.966;2024-02-15T08:25:00;12.48;;;9.13;;
10078;SDS011;5078;42.544;22.966;2024-02-15T08:27:31;10.73;;;7.95;;
10078;SDS011;5078;42.544;22.966;2024-02-15T08:29:59;10.73;;;8.77;;
10078;SDS011;5078;42.544;22.966;2024-02-15T08:32:28;10.60;;;9.43;;
10078;SDS011;5078;42.544;22.966;2024-02-15T08:34:54;11.80;;;8.60;;
10078;SDS011;5078;42.544;22.966;2024-02-15T08:37:21;10.85;;;9.00;;
10078;SDS011;5078;42.544;22.966;2024-02-15T08:39:48;16.45;;;9.73;;
10078;SDS011;5078;42.544;22.966;2024-02-15T08:42:14;11.38;;;8.80;;
10078;SDS011;5078;42.544;22.966;2024-02-15T08:44:42;11.52;;;9.13;;
10078;SDS011;5078;42.544;22.966;2024-02-15T08:47:09;10.77;;;9.05;;
10078;SDS011;5078;42.544;22.966;2024-02-15T08:49:36;12.20;;;9.38;;
10078;SDS011;5078;42.544;22.966;2024-02-15T08:52:02;11.75;;;10.00;;
10078;SDS011;5078;42.544;22.966;2024-02-15T08:54:29;10.43;;;8.77;;
10078;SDS011;5078;42.544;22.966;2024-02-15T08:56:57;9.95;;;8.88;;
10078;SDS011;5078;42.544;22.966;2024-02-15T08:59:24;10.85;;;8.82;;
10078;SDS011;5078;42.544;22.966;2024-02-15T09:01:53;10.57;;;8.43;;
10078;SDS011;5078;42.544;22.966;2024-02-15T09:04:21;9.57;;;8.57;;
10078;SDS011;5078;42.544;22.966;2024-02-15T09:06:51;11.45;;;8.98;;
10078;SDS011;5078;42.544;22.966;2024-02-15T09:09:18;14.77;;;10.77;;
10078;SDS011;5078;42.544;22.966;2024-02-15T09:11:44;14.75;;;10.90;;
10078;SDS011;5078;42.544;22.966;2024-02-15T09:14:11;14.48;;;10.15;;
10078;SDS011;5078;42.544;22.966;2024-02-15T09:16:37;15.18;;;10.27;;
10078;SDS011;5078;42.544;22.966;2024-02-15T09:19:05;14.98;;;10.20;;
10078;SDS011;5078;42.544;22.966;2024-02-15T09:21:32;14.38;;;10.80;;
10078;SDS011;5078;42.544;22.966;2024-02-15T09:23:59;15.88;;;10.40;;
10078;SDS011;5078;42.544;22.966;2024-02-15T09:26:26;8.45;;;7.60;;
10078;SDS011;5078;42.544;22.966;2024-02-15T09:28:53;10.32;;;8.77;;
10078;SDS011;5078;42.544;22.966;2024-02-15T09:31:20;13.45;;;9.90;;
10078;SDS011;5078;42.544;22.966;2024-02-15T09:33:47;9.35;;;8.38;;
10078;SDS011;5078;42.544;22.966;2024-02-15T09:36:15;9.18;;;8.15;;
10078;SDS011;5078;42.544;22.966;2024-02-15T09:38:41;9.63;;;8.63;;
10078;SDS011;5078;42.544;22.966;2024-02-15T09:41:08;11.45;;;8.85;;
10078;SDS011;5078;42.544;22.966;2024-02-15T09:43:35;8.93;;;8.02;;
10078;SDS011;5078;42.544;22.966;2024-02-15T09:46:02;9.05;;;8.13;;
10078;SDS011;5078;42.544;22.966;2024-02-15T09:48:29;8.75;;;7.28;;
10078;SDS011;5078;42.544;22.966;2024-02-15T09:50:58;8.70;;;6.75;;
10078;SDS011;5078;42.544;22.966;2024-02-15T09:53:27;11.32;;;9.55;;
10078;SDS011;5078;42.544;22.966;2024-02-15T09:55:55;10.23;;;8.18;;
10078;SDS011;5078;42.544;22.966;2024-02-15T09:58:29;7.80;;;6.47;;
10078;SDS011;5078;42.544;22.966;2024-02-15T10:00:58;10.40;;;7.80;;
10078;SDS011;5078;42.544;22.966;2024-02-15T10:03:29;9.70;;;8.70;;
10078;SDS011;5078;42.544;22.966;2024-02-15T10:05:57;10.98;;;8.27;;
10078;SDS011;5078;42.544;22.966;2024-02-15T10:08:23;11.98;;;7.82;;
10078;SDS011;5078;42.544;22.966;2024-02-15T10:10:59;7.90;;;7.10;;
10078;SDS011;5078;42.544;22.966;2024-02-15T10:13:32;10.35;;;7.90;;
10078;SDS011;5078;42.544;22.966;2024-02-15T10:15:59;8.80;;;7.68;;
10078;SDS011;5078;42.544;22.966;2024-02-15T10:18:25;9.85;;;8.70;;
10078;SDS011;5078;42.544;22.966;2024-02-15T10:20:57;9.10;;;8.10;;
10078;SDS011;5078;42.544;22.966;2024-02-15T10:23:24;9.40;;;7.78;;
10078;SDS011;5078;42.544;22.966;2024-02-15T10:25:51;10.05;;;8.15;;
10078;SDS011;5078;42.544;22.966;2024-02-15T10:28:22;9.10;;;8.10;;
10078;SDS011;5078;42.544;22.966;2024-02-15T10:30:49;8.55;;;7.03;;
10078;SDS011;5078;42.544;22.966;2024-02-15T10:33:18;8.40;;;6.60;;
10078;SDS011;5078;42.544;22.966;2024-02-15T10:35:46;8.05;;;6.32;;
10078;SDS011;5078;42.544;22.966;2024-02-15T10:38:13;8.75;;;6.68;;
10078;SDS011;5078;42.544;22.966;2024-02-15T10:40:40;8.10;;;7.15;;
10078;SDS011;5078;42.544;22.966;2024-02-15T10:43:08;10.80;;;7.13;;
10078;SDS011;5078;42.544;22.966;2024-02-15T10:45:39;7.63;;;6.90;;
10078;SDS011;5078;42.544;22.966;2024-02-15T10:48:07;7.85;;;6.43;;
10078;SDS011;5078;42.544;22.966;2024-02-15T10:50:34;7.57;;;6.88;;
10078;SDS011;5078;42.544;22.966;2024-02-15T10:53:02;8.30;;;6.15;;
10078;SDS011;5078;42.544;22.966;2024-02-15T10:55:38;7.03;;;6.28;;
10078;SDS011;5078;42.544;22.966;2024-02-15T10:58:11;8.98;;;8.07;;
10078;SDS011;5078;42.544;22.966;2024-02-15T11:00:44;9.77;;;7.28;;
10078;SDS011;5078;42.544;22.966;2024-02-15T11:03:13;8.80;;;7.35;;
10078;SDS011;5078;42.544;22.966;2024-02-15T11:05:45;7.78;;;6.90;;
10078;SDS011;5078;42.544;22.966;2024-02-15T11:08:13;7.78;;;6.80;;
10078;SDS011;5078;42.544;22.966;2024-02-15T11:10:42;8.65;;;6.75;;
10078;SDS011;5078;42.544;22.966;2024-02-15T11:13:09;10.23;;;7.40;;
10078;SDS011;5078;42.544;22.966;2024-02-15T11:15:43;11.35;;;7.63;;
10078;SDS011;5078;42.544;22.966;2024-02-15T11:21:11;10.30;;;6.82;;
10078;SDS011;5078;42.544;22.966;2024-02-15T11:23:38;7.55;;;5.97;;
10078;SDS011;5078;42.544;22.966;2024-02-15T11:26:08;7.13;;;6.43;;
10078;SDS011;5078;42.544;22.966;2024-02-15T11:28:42;9.27;;;6.70;;
10078;SDS011;5078;42.544;22.966;2024-02-15T11:40:17;7.30;;;6.18;;
10078;SDS011;5078;42.544;22.966;2024-02-15T11:42:45;7.72;;;6.22;;
10078;SDS011;5078;42.544;22.966;2024-02-15T11:45:12;8.32;;;5.97;;
10078;SDS011;5078;42.544;22.966;2024-02-15T11:47:43;8.68;;;6.45;;
10078;SDS011;5078;42.544;22.966;2024-02-15T11:50:16;7.07;;;6.00;;
10078;SDS011;5078;42.544;22.966;2024-02-15T11:52:45;7.15;;;5.68;;
10078;SDS011;5078;42.544;22.966;2024-02-15T11:55:14;7.93;;;6.65;;
10078;SDS011;5078;42.544;22.966;2024-02-15T11:57:54;7.18;;;6.07;;
10078;SDS011;5078;42.544;22.966;2024-02-15T12:00:27;7.40;;;6.50;;
10078;SDS011;5078;42.544;22.966;2024-02-15T12:03:13;5.32;;;4.82;;
10078;SDS011;5078;42.544;22.966;2024-02-15T12:05:59;7.72;;;5.97;;
10078;SDS011;5078;42.544;22.966;2024-02-15T12:08:44;6.20;;;5.43;;
10078;SDS011;5078;42.544;22.966;2024-02-15T12:11:29;7.18;;;6.20;;
10078;SDS011;5078;42.544;22.966;2024-02-15T12:14:13;7.13;;;6.30;;
10078;SDS011;5078;42.544;22.966;2024-02-15T12:16:59;6.85;;;6.15;;
10078;SDS011;5078;42.544;22.966;2024-02-15T12:19:44;7.22;;;6.43;;
10078;SDS011;5078;42.544;22.966;2024-02-15T12:22:12;7.93;;;6.32;;
10078;SDS011;5078;42.544;22.966;2024-02-15T12:24:39;6.57;;;5.82;;
10078;SDS011;5078;42.544;22.966;2024-02-15T12:27:06;8.57;;;6.63;;
10078;SDS011;5078;42.544;22.966;2024-02-15T12:29:33;8.90;;;6.22;;
10078;SDS011;5078;42.544;22.966;2024-02-15T12:32:00;8.48;;;6.97;;
10078;SDS011;5078;42.544;22.966;2024-02-15T12:34:28;7.55;;;6.53;;
10078;SDS011;5078;42.544;22.966;2024-02-15T12:37:04;10.32;;;7.32;;
10078;SDS011;5078;42.544;22.966;2024-02-15T12:39:33;7.60;;;6.68;;
10078;SDS011;5078;42.544;22.966;2024-02-15T12:41:59;7.80;;;6.85;;
10078;SDS011;5078;42.544;22.966;2024-02-15T12:44:26;9.85;;;7.45;;
10078;SDS011;5078;42.544;22.966;2024-02-15T12:46:57;7.57;;;5.80;;
10078;SDS011;5078;42.544;22.966;2024-02-15T12:49:28;8.73;;;7.40;;
10078;SDS011;5078;42.544;22.966;2024-02-15T12:55:07;8.48;;;7.35;;
10078;SDS011;5078;42.544;22.966;2024-02-15T12:57:38;8.60;;;6.75;;
10078;SDS011;5078;42.544;22.966;2024-02-15T13:00:07;7.68;;;6.50;;
10078;SDS011;5078;42.544;22.966;2024-02-15T13:02:39;7.60;;;6.82;;
10078;SDS011;5078;42.544;22.966;2024-02-15T13:05:06;8.82;;;6.72;;
10078;SDS011;5078;42.544;22.966;2024-02-15T13:07:34;7.65;;;6.63;;
10078;SDS011;5078;42.544;22.966;2024-02-15T13:10:01;7.70;;;6.90;;
10078;SDS011;5078;42.544;22.966;2024-02-15T13:12:33;8.48;;;5.85;;
10078;SDS011;5078;42.544;22.966;2024-02-15T13:15:01;11.35;;;6.72;;
10078;SDS011;5078;42.544;22.966;2024-02-15T13:17:30;7.63;;;6.10;;
10078;SDS011;5078;42.544;22.966;2024-02-15T13:19:58;8.05;;;6.07;;
10078;SDS011;5078;42.544;22.966;2024-02-15T13:22:29;6.07;;;5.05;;
10078;SDS011;5078;42.544;22.966;2024-02-15T13:24:57;8.82;;;7.50;;
10078;SDS011;5078;42.544;22.966;2024-02-15T13:27:23;7.72;;;6.93;;
10078;SDS011;5078;42.544;22.966;2024-02-15T13:29:52;8.13;;;7.10;;
10078;SDS011;5078;42.544;22.966;2024-02-15T13:32:20;7.22;;;5.90;;
10078;SDS011;5078;42.544;22.966;2024-02-15T13:34:47;7.20;;;6.45;;
10078;SDS011;5078;42.544;22.966;2024-02-15T13:37:17;8.27;;;5.85;;
10078;SDS011;5078;42.544;22.966;2024-02-15T13:39:45;9.07;;;6.22;;
10078;SDS011;5078;42.544;22.966;2024-02-15T13:42:13;4.97;;;4.47;;
10078;SDS011;5078;42.544;22.966;2024-02-15T13:44:40;8.68;;;6.50;;
10078;SDS011;5078;42.544;22.966;2024-02-15T13:47:08;8.80;;;7.28;;
10078;SDS011;5078;42.544;22.966;2024-02-15T13:49:34;6.85;;;5.57;;
10078;SDS011;5078;42.544;22.966;2024-02-15T13:52:02;8.52;;;7.00;;
10078;SDS011;5078;42.544;22.966;2024-02-15T13:54:29;11.65;;;6.80;;
10078;SDS011;5078;42.544;22.966;2024-02-15T13:56:56;7.97;;;6.75;;
10078;SDS011;5078;42.544;22.966;2024-02-15T13:59:23;7.47;;;6.75;;
10078;SDS011;5078;42.544;22.966;2024-02-15T14:01:49;8.13;;;7.32;;
10078;SDS011;5078;42.544;22.966;2024-02-15T14:04:17;6.72;;;6.07;;
10078;SDS011;5078;42.544;22.966;2024-02-15T14:06:44;6.10;;;5.50;;
10078;SDS011;5078;42.544;22.966;2024-02-15T14:09:11;7.85;;;5.68;;
10078;SDS011;5078;42.544;22.966;2024-02-15T14:11:38;8.10;;;6.10;;
10078;SDS011;5078;42.544;22.966;2024-02-15T14:14:05;8.95;;;8.00;;
10078;SDS011;5078;42.544;22.966;2024-02-15T14:16:32;12.85;;;9.85;;
10078;SDS011;5078;42.544;22.966;2024-02-15T14:18:59;9.65;;;7.10;;
10078;SDS011;5078;42.544;22.966;2024-02-15T14:21:30;9.93;;;7.80;;
10078;SDS011;5078;42.544;22.966;2024-02-15T14:23:59;10.15;;;8.90;;
10078;SDS011;5078;42.544;22.966;2024-02-15T14:26:30;10.18;;;8.15;;
10078;SDS011;5078;42.544;22.966;2024-02-15T14:28:57;11.05;;;9.68;;
10078;SDS011;5078;42.544;22.966;2024-02-15T14:31:26;11.90;;;9.70;;
10078;SDS011;5078;42.544;22.966;2024-02-15T14:34:10;15.43;;;12.68;;
10078;SDS011;5078;42.544;22.966;2024-02-15T14:36:38;14.70;;;10.73;;
10078;SDS011;5078;42.544;22.966;2024-02-15T14:39:05;12.65;;;9.48;;
10078;SDS011;5078;42.544;22.966;2024-02-15T14:41:34;12.05;;;8.98;;
10078;SDS011;5078;42.544;22.966;2024-02-15T14:44:00;12.52;;;8.80;;
10078;SDS011;5078;42.544;22.966;2024-02-15T14:46:27;10.43;;;7.88;;
10078;SDS011;5078;42.544;22.966;2024-02-15T14:48:54;8.85;;;6.93;;
10078;SDS011;5078;42.544;22.966;2024-02-15T14:51:22;9.05;;;7.53;;
10078;SDS011;5078;42.544;22.966;2024-02-15T14:53:50;11.18;;;8.68;;